Time;durP1;ratioP1;P1;durP2;ratioP2;P2;SDS_P1;SDS_P2;PMS_P1;PMS_P2;Temp;Humidity;BMP_temperature;BMP_pressure;BME280_temperature;BME280_humidity;BME280_pressure;Samples;Min_cycle;Max_cycle;Signal;HPM_P1;HPM_P2
2022/05/25 00:00:25;;;;;;;3.90;1.13;;;13.40;99.90;;;;;;5033754;28;20259;-81
2022/05/25 00:02:52;;;;;;;7.60;1.10;;;13.50;99.90;;;;;;5033039;28;20157;-79
2022/05/25 00:05:19;;;;;;;2.13;1.08;;;13.40;99.90;;;;;;5033393;28;20190;-78
2022/05/25 00:07:45;;;;;;;2.33;1.10;;;13.30;99.90;;;;;;5032487;28;20195;-78
2022/05/25 00:10:12;;;;;;;3.67;1.50;;;13.30;99.90;;;;;;5033194;28;20298;-79
2022/05/25 00:12:40;;;;;;;1.77;1.10;;;13.30;99.90;;;;;;5033412;28;20191;-79
2022/05/25 00:15:07;;;;;;;3.35;1.38;;;13.40;99.90;;;;;;5033632;28;20160;-79
2022/05/25 00:17:33;;;;;;;2.55;1.33;;;13.40;99.90;;;;;;5015261;28;20203;-79
2022/05/25 00:19:59;;;;;;;4.45;1.63;;;13.40;99.90;;;;;;5033029;28;20176;-78
2022/05/25 00:22:26;;;;;;;5.05;1.65;;;13.20;99.90;;;;;;5015833;28;20632;-79
2022/05/25 00:24:56;;;;;;;2.38;1.67;;;13.40;99.90;;;;;;5033925;28;20172;-79
2022/05/25 00:27:22;;;;;;;3.78;1.50;;;13.20;99.90;;;;;;5033567;28;20262;-82
2022/05/25 00:29:48;;;;;;;10.15;1.58;;;13.00;99.90;;;;;;5033350;28;20210;-80
2022/05/25 00:32:14;;;;;;;3.33;1.30;;;12.90;99.90;;;;;;5033025;28;20160;-79
2022/05/25 00:34:40;;;;;;;2.08;1.20;;;13.00;99.90;;;;;;5033165;28;20171;-79
2022/05/25 00:37:05;;;;;;;4.25;1.35;;;13.10;99.90;;;;;;5032344;28;20188;-79
2022/05/25 00:39:31;;;;;;;9.10;1.70;;;13.10;99.90;;;;;;5032859;28;20175;-79
2022/05/25 00:41:57;;;;;;;5.00;1.55;;;12.90;99.90;;;;;;5033114;28;20540;-79
2022/05/25 00:44:24;;;;;;;8.80;1.50;;;12.90;99.90;;;;;;5032731;28;20171;-81
2022/05/25 00:46:50;;;;;;;9.90;1.10;;;12.90;99.90;;;;;;5033003;28;20176;-81
2022/05/25 00:49:24;;;;;;;2.70;1.25;;;13.00;99.90;;;;;;5033087;28;20222;-80
2022/05/25 00:51:52;;;;;;;3.50;1.70;;;13.00;99.90;;;;;;5033188;28;20186;-79
2022/05/25 00:54:37;;;;;;;6.93;1.58;;;12.90;99.90;;;;;;5033172;28;20653;-79
2022/05/25 00:57:07;;;;;;;4.00;1.40;;;12.90;99.90;;;;;;5032569;28;20246;-79
2022/05/25 00:59:40;;;;;;;6.22;1.60;;;12.70;99.90;;;;;;5032537;28;20168;-79
2022/05/25 01:02:05;;;;;;;4.65;1.67;;;12.70;99.90;;;;;;5033482;28;20172;-82
2022/05/25 01:04:31;;;;;;;2.45;1.50;;;12.60;99.90;;;;;;5032636;28;20168;-78
2022/05/25 01:07:31;;;;;;;1.67;1.40;;;12.50;99.90;;;;;;5032985;28;20230;-79
2022/05/25 01:10:06;;;;;;;6.50;1.67;;;12.60;99.90;;;;;;5032935;28;20207;-78
2022/05/25 01:12:55;;;;;;;4.03;1.55;;;12.40;99.90;;;;;;5033082;28;20171;-79
2022/05/25 01:15:26;;;;;;;6.72;1.50;;;12.60;99.90;;;;;;5032554;28;20179;-83
2022/05/25 01:18:13;;;;;;;4.13;1.80;;;12.70;99.90;;;;;;5015389;28;20215;-82
2022/05/25 01:20:53;;;;;;;4.63;1.38;;;12.60;99.90;;;;;;5032721;28;20171;-79
2022/05/25 01:23:54;;;;;;;5.68;1.50;;;12.60;99.90;;;;;;5032976;28;20172;-81
2022/05/25 01:26:51;;;;;;;4.70;2.00;;;12.70;99.90;;;;;;5032384;28;20168;-80
2022/05/25 01:29:45;;;;;;;1.50;1.40;;;12.80;99.90;;;;;;5032518;28;20196;-78
2022/05/25 01:32:19;;;;;;;2.30;1.50;;;12.70;99.90;;;;;;5033021;28;20226;-78
2022/05/25 01:35:06;;;;;;;4.97;1.70;;;12.60;99.90;;;;;;5033033;28;20258;-79
2022/05/25 01:37:46;;;;;;;7.15;2.25;;;12.60;99.90;;;;;;5032903;28;20191;-79
2022/05/25 01:40:44;;;;;;;7.10;1.85;;;12.60;99.90;;;;;;5032873;28;20168;-83
2022/05/25 01:43:20;;;;;;;3.05;1.33;;;12.70;99.90;;;;;;5033813;28;20179;-80
2022/05/25 01:45:53;;;;;;;9.18;1.77;;;12.50;99.90;;;;;;5036218;28;20174;-79
2022/05/25 01:48:22;;;;;;;1.95;1.50;;;12.40;99.90;;;;;;5036386;28;20188;-83
2022/05/25 01:50:52;;;;;;;7.65;1.73;;;12.50;99.90;;;;;;5036643;28;20551;-83
2022/05/25 01:53:20;;;;;;;7.65;2.10;;;12.50;99.90;;;;;;5036658;28;20179;-78
2022/05/25 01:55:51;;;;;;;6.40;1.77;;;12.50;99.90;;;;;;5018580;28;20173;-79
2022/05/25 01:58:20;;;;;;;4.47;2.35;;;12.50;99.90;;;;;;5036193;28;20183;-79
2022/05/25 02:00:57;;;;;;;2.50;1.80;;;12.50;99.90;;;;;;5036011;28;20183;-78
2022/05/25 02:06:33;;;;;;;9.45;1.92;;;12.50;99.90;;;;;;5036049;28;20187;-79
2022/05/25 02:09:35;;;;;;;2.38;1.98;;;12.50;99.90;;;;;;5035444;28;20200;-79
2022/05/25 02:12:16;;;;;;;3.83;1.63;;;12.50;99.90;;;;;;5035828;28;20171;-79
2022/05/25 02:15:13;;;;;;;2.00;1.52;;;12.30;99.90;;;;;;5036265;28;20167;-79
2022/05/25 02:17:55;;;;;;;3.47;2.22;;;12.20;99.90;;;;;;5036147;28;20668;-79
2022/05/25 02:20:33;;;;;;;4.80;2.10;;;12.30;99.90;;;;;;5036056;28;20172;-80
2022/05/25 02:23:17;;;;;;;3.30;2.10;;;12.40;99.90;;;;;;5036284;28;20759;-79
2022/05/25 02:26:12;;;;;;;8.10;2.17;;;12.30;99.90;;;;;;5041257;28;20183;-79
2022/05/25 02:28:46;;;;;;;3.13;1.63;;;12.30;99.90;;;;;;5039105;28;20695;-79
2022/05/25 02:31:17;;;;;;;12.07;2.50;;;12.20;99.90;;;;;;5040914;28;20625;-79
2022/05/25 02:33:48;;;;;;;6.63;2.15;;;12.10;99.90;;;;;;5038065;28;20199;-79
2022/05/25 02:36:15;;;;;;;4.28;2.08;;;11.90;99.90;;;;;;5035453;28;20176;-78
2022/05/25 02:38:43;;;;;;;2.25;1.95;;;11.90;99.90;;;;;;5035261;28;20176;-78
2022/05/25 02:41:11;;;;;;;6.30;2.20;;;11.80;99.90;;;;;;5035078;28;20171;-78
2022/05/25 02:43:38;;;;;;;5.47;2.00;;;12.00;99.90;;;;;;5017076;28;20167;-79
2022/05/25 02:46:06;;;;;;;9.18;2.67;;;12.00;99.90;;;;;;5035011;28;20168;-78
2022/05/25 02:48:36;;;;;;;5.40;1.98;;;12.00;99.90;;;;;;5034575;28;20254;-77
2022/05/25 02:51:02;;;;;;;7.35;2.28;;;12.10;99.90;;;;;;5034917;28;20184;-78
2022/05/25 02:53:28;;;;;;;7.38;2.50;;;12.10;99.90;;;;;;5035058;28;20665;-78
2022/05/25 02:55:54;;;;;;;2.90;1.92;;;12.20;99.90;;;;;;5033968;28;20175;-78
2022/05/25 02:58:20;;;;;;;4.30;2.60;;;11.90;99.90;;;;;;5016863;28;20184;-79
2022/05/25 03:00:45;;;;;;;5.65;2.25;;;11.90;99.90;;;;;;5034727;28;20172;-78
2022/05/25 03:03:12;;;;;;;9.32;2.95;;;12.00;99.90;;;;;;5034679;28;20167;-78
2022/05/25 03:05:40;;;;;;;5.78;3.42;;;12.00;99.90;;;;;;5035079;28;20252;-78
2022/05/25 03:08:05;;;;;;;4.13;2.17;;;12.00;99.90;;;;;;5034420;28;20190;-78
2022/05/25 03:10:32;;;;;;;4.22;2.28;;;12.20;99.90;;;;;;5034805;28;20199;-78
2022/05/25 03:12:57;;;;;;;4.78;2.83;;;12.30;99.90;;;;;;5034637;28;20164;-80
2022/05/25 03:15:23;;;;;;;8.55;2.28;;;12.10;99.90;;;;;;5034700;28;20651;-78
2022/05/25 03:17:49;;;;;;;8.27;3.33;;;12.30;99.90;;;;;;5033672;28;20176;-78
2022/05/25 03:20:15;;;;;;;6.43;3.83;;;12.20;99.90;;;;;;5034186;28;20636;-78
2022/05/25 03:22:44;;;;;;;4.35;2.70;;;12.20;99.90;;;;;;5016591;28;20238;-79
2022/05/25 03:25:11;;;;;;;4.40;2.25;;;11.90;99.90;;;;;;5034336;28;20653;-79
2022/05/25 03:27:37;;;;;;;4.25;2.65;;;11.70;99.90;;;;;;5034018;28;20184;-80
2022/05/25 03:30:07;;;;;;;2.50;2.30;;;11.80;99.90;;;;;;5034528;28;20215;-80
2022/05/25 03:32:34;;;;;;;4.30;2.20;;;11.80;99.90;;;;;;5033950;28;20616;-79
2022/05/25 03:35:00;;;;;;;4.75;2.72;;;12.00;99.90;;;;;;5033896;28;20167;-79
2022/05/25 03:37:26;;;;;;;6.22;2.72;;;12.00;99.90;;;;;;5033642;28;20254;-78
2022/05/25 03:39:52;;;;;;;10.25;2.70;;;11.80;99.90;;;;;;5015607;28;20253;-77
2022/05/25 03:42:18;;;;;;;4.07;2.55;;;11.60;99.90;;;;;;5033440;28;20641;-78
2022/05/25 03:44:45;;;;;;;14.77;3.10;;;11.70;99.90;;;;;;5033670;28;20179;-77
2022/05/25 03:47:11;;;;;;;3.83;3.33;;;11.80;99.90;;;;;;5016140;28;20656;-78
2022/05/25 03:49:37;;;;;;;6.35;2.38;;;11.80;99.90;;;;;;5033716;28;20212;-79
2022/05/25 03:52:04;;;;;;;7.03;3.28;;;11.80;99.90;;;;;;5033503;28;20179;-78
2022/05/25 03:54:31;;;;;;;4.88;3.22;;;11.80;99.90;;;;;;5033521;28;20641;-80
2022/05/25 03:56:57;;;;;;;3.88;2.10;;;11.70;99.90;;;;;;5033503;28;20719;-79
2022/05/25 03:59:24;;;;;;;2.90;2.53;;;11.70;99.90;;;;;;5033566;28;20556;-78
2022/05/25 04:01:50;;;;;;;6.97;2.88;;;11.70;99.90;;;;;;5033594;28;20191;-78
2022/05/25 04:04:16;;;;;;;6.10;2.20;;;11.70;99.90;;;;;;5033543;28;20686;-79
2022/05/25 04:06:42;;;;;;;7.97;2.60;;;11.80;99.90;;;;;;5033304;28;20171;-83
2022/05/25 04:09:09;;;;;;;3.72;2.00;;;12.00;99.90;;;;;;5033482;28;20203;-79
2022/05/25 04:11:35;;;;;;;7.43;2.63;;;12.30;99.90;;;;;;5033714;28;20178;-79
2022/05/25 04:14:01;;;;;;;4.10;2.47;;;12.20;99.90;;;;;;5033580;28;20246;-79
2022/05/25 04:16:27;;;;;;;7.00;2.33;;;12.30;99.90;;;;;;5033389;28;20888;-78
2022/05/25 04:18:53;;;;;;;2.08;1.88;;;12.30;99.90;;;;;;5033217;28;20221;-79
2022/05/25 04:21:18;;;;;;;3.83;2.03;;;12.50;99.90;;;;;;5033375;28;20570;-78
2022/05/25 04:23:44;;;;;;;3.35;2.90;;;12.40;99.90;;;;;;5033058;28;20180;-78
2022/05/25 04:26:09;;;;;;;5.03;2.05;;;12.10;99.90;;;;;;5033161;28;20187;-78
2022/05/25 04:28:36;;;;;;;5.50;2.78;;;12.00;99.90;;;;;;5033371;28;20187;-78
2022/05/25 04:31:03;;;;;;;5.50;2.28;;;12.10;99.90;;;;;;5033435;28;20199;-79
2022/05/25 04:33:30;;;;;;;9.65;2.50;;;12.00;99.90;;;;;;5033250;28;20285;-79
2022/05/25 04:35:57;;;;;;;5.82;1.92;;;12.20;99.90;;;;;;5033529;28;20164;-78
2022/05/25 04:38:23;;;;;;;2.35;2.08;;;12.30;99.90;;;;;;5032733;28;20683;-79
2022/05/25 04:40:48;;;;;;;8.30;2.45;;;12.30;99.90;;;;;;5032829;28;20160;-78
2022/05/25 04:43:20;;;;;;;3.72;2.10;;;12.20;99.90;;;;;;5032967;28;20684;-77
2022/05/25 04:45:48;;;;;;;9.43;2.17;;;12.20;99.90;;;;;;5032731;28;20167;-78
2022/05/25 04:48:15;;;;;;;7.38;2.00;;;12.20;99.90;;;;;;5014878;28;20196;-79
2022/05/25 04:50:43;;;;;;;6.18;1.92;;;12.40;99.90;;;;;;5033074;28;20566;-77
2022/05/25 04:53:12;;;;;;;2.63;1.92;;;12.40;99.90;;;;;;5033257;28;20156;-79
2022/05/25 04:58:28;;;;;;;2.47;1.85;;;12.70;99.90;;;;;;5032893;28;20694;-78
2022/05/25 05:00:54;;;;;;;9.95;2.22;;;12.70;99.90;;;;;;5014944;28;20200;-78
2022/05/25 05:03:21;;;;;;;5.53;1.45;;;12.70;99.90;;;;;;5032418;28;20210;-79
2022/05/25 05:05:48;;;;;;;2.60;2.40;;;12.80;99.90;;;;;;5032541;28;20243;-79
2022/05/25 05:08:14;;;;;;;6.97;2.05;;;12.80;99.90;;;;;;5032024;28;20214;-79
2022/05/25 05:10:40;;;;;;;6.88;1.52;;;12.80;99.90;;;;;;5032053;28;20206;-78
2022/05/25 05:13:07;;;;;;;5.82;1.77;;;12.90;99.90;;;;;;5032106;28;20247;-78
2022/05/25 05:15:38;;;;;;;7.50;1.65;;;12.90;99.90;;;;;;5032671;28;20652;-79
2022/05/25 05:18:04;;;;;;;2.80;1.80;;;13.00;99.90;;;;;;5033257;28;20208;-78
2022/05/25 05:20:30;;;;;;;2.58;1.77;;;13.10;99.90;;;;;;5036591;28;20171;-78
2022/05/25 05:22:56;;;;;;;3.75;1.63;;;13.10;99.90;;;;;;5036350;28;20172;-79
2022/05/25 05:25:22;;;;;;;2.35;1.45;;;13.10;99.90;;;;;;5036725;28;20209;-79
2022/05/25 05:27:48;;;;;;;2.35;1.63;;;13.10;99.90;;;;;;5036463;28;20196;-79
2022/05/25 05:30:19;;;;;;;10.85;2.40;;;13.10;99.90;;;;;;5018636;28;20227;-79
2022/05/25 05:32:45;;;;;;;5.53;1.90;;;13.10;99.90;;;;;;5036116;28;20628;-79
2022/05/25 05:35:11;;;;;;;4.28;2.10;;;13.20;99.90;;;;;;5018120;28;20180;-79
2022/05/25 05:37:39;;;;;;;10.25;1.70;;;13.20;99.90;;;;;;5035880;28;20195;-79
2022/05/25 05:40:07;;;;;;;5.93;2.13;;;13.30;99.90;;;;;;5036080;28;20597;-78
2022/05/25 05:42:36;;;;;;;5.22;2.10;;;13.40;99.90;;;;;;5035699;28;20616;-78
2022/05/25 05:45:05;;;;;;;4.70;1.50;;;13.50;99.90;;;;;;5035490;28;20220;-79
2022/05/25 05:47:36;;;;;;;3.08;1.58;;;13.70;99.90;;;;;;5035602;28;20753;-79
2022/05/25 05:50:07;;;;;;;8.13;1.92;;;13.70;99.90;;;;;;5035997;28;20703;-78
2022/05/25 05:52:34;;;;;;;6.40;1.65;;;13.90;99.90;;;;;;5035755;28;20225;-78
2022/05/25 05:55:01;;;;;;;5.53;1.48;;;13.80;99.90;;;;;;5035411;28;20164;-78
2022/05/25 05:57:27;;;;;;;2.35;1.90;;;13.70;99.90;;;;;;5035786;28;20196;-78
2022/05/25 05:59:53;;;;;;;2.80;1.52;;;13.70;99.90;;;;;;5035614;28;20309;-78
2022/05/25 06:02:18;;;;;;;3.00;1.60;;;13.60;99.90;;;;;;5035988;28;20624;-82
2022/05/25 06:04:44;;;;;;;4.25;2.00;;;13.70;99.90;;;;;;5035762;28;20175;-79
2022/05/25 06:07:10;;;;;;;7.45;2.40;;;13.90;99.90;;;;;;5035113;28;20187;-84
2022/05/25 06:09:35;;;;;;;5.63;2.00;;;13.90;99.90;;;;;;5035218;28;20207;-82
2022/05/25 06:12:01;;;;;;;7.43;1.92;;;13.90;99.90;;;;;;5035550;28;20788;-80
2022/05/25 06:14:27;;;;;;;6.78;1.80;;;14.10;99.90;;;;;;5035147;28;20178;-79
2022/05/25 06:19:37;;;;;;;5.20;2.10;;;14.20;99.90;;;;;;5035636;28;20198;-77
2022/05/25 06:22:12;;;;;;;3.25;1.50;;;14.30;99.90;;;;;;5035303;28;20160;-79
2022/05/25 06:24:51;;;;;;;9.77;2.00;;;14.40;99.90;;;;;;5035127;28;20242;-78
2022/05/25 06:27:19;;;;;;;4.00;2.22;;;14.40;99.90;;;;;;5035163;28;20190;-80
2022/05/25 06:29:47;;;;;;;7.80;2.00;;;14.40;99.90;;;;;;5035168;28;20356;-78
2022/05/25 06:32:14;;;;;;;2.35;1.75;;;14.30;99.90;;;;;;5035289;28;20206;-78
2022/05/25 06:34:41;;;;;;;12.35;1.92;;;14.40;99.90;;;;;;5034991;28;20160;-77
2022/05/25 06:37:13;;;;;;;7.25;1.95;;;14.50;99.90;;;;;;5035126;28;20191;-82
2022/05/25 06:39:38;;;;;;;3.85;2.03;;;14.60;99.90;;;;;;5034974;28;20170;-78
2022/05/25 06:42:05;;;;;;;2.72;1.85;;;14.70;99.90;;;;;;5035282;28;20172;-81
2022/05/25 06:44:31;;;;;;;14.38;2.50;;;14.80;99.90;;;;;;5036560;28;20560;-79
2022/05/25 06:46:56;;;;;;;8.98;2.25;;;14.80;99.90;;;;;;5022011;28;20172;-77
2022/05/25 06:49:22;;;;;;;4.95;1.70;;;14.90;99.90;;;;;;5046201;28;20207;-81
2022/05/25 06:51:48;;;;;;;5.72;1.90;;;15.00;99.90;;;;;;5027084;28;20746;-78
2022/05/25 06:54:16;;;;;;;8.80;1.50;;;15.10;99.90;;;;;;5044369;28;20291;-83
2022/05/25 06:56:42;;;;;;;11.55;1.73;;;15.30;99.90;;;;;;5039408;28;20164;-83
2022/05/25 06:59:08;;;;;;;4.80;2.08;;;15.30;99.90;;;;;;5017498;28;20168;-85
2022/05/25 07:01:35;;;;;;;6.82;2.20;;;15.30;99.90;;;;;;5017793;28;20199;-84
2022/05/25 07:04:00;;;;;;;3.88;1.55;;;15.40;99.90;;;;;;5016746;28;20222;-83
2022/05/25 07:06:27;;;;;;;3.67;1.67;;;15.60;99.90;;;;;;5017272;28;20621;-86
2022/05/25 07:08:53;;;;;;;11.50;1.55;;;15.90;99.90;;;;;;5036375;28;20625;-81
2022/05/25 07:11:20;;;;;;;4.18;1.23;;;16.60;99.90;;;;;;5018184;28;20637;-82
2022/05/25 07:13:46;;;;;;;4.07;1.63;;;17.10;99.90;;;;;;5019849;28;20172;-81
2022/05/25 07:16:16;;;;;;;3.75;1.65;;;17.80;99.90;;;;;;5035737;28;20164;-79
2022/05/25 07:18:43;;;;;;;2.25;1.10;;;18.60;99.90;;;;;;5058784;22;20218;-87
2022/05/25 07:21:20;;;;;;;3.30;1.73;;;19.00;99.90;;;;;;5038260;28;20163;-86
2022/05/25 07:23:49;;;;;;;6.95;1.42;;;19.20;99.90;;;;;;5055428;28;20171;-85
2022/05/25 07:26:16;;;;;;;6.10;1.33;;;19.30;99.90;;;;;;5037830;28;20171;-83
2022/05/25 07:28:42;;;;;;;3.15;1.30;;;19.90;99.90;;;;;;5036579;28;20199;-83
2022/05/25 07:31:24;;;;;;;1.38;1.27;;;20.00;99.90;;;;;;5054567;28;20206;-83
2022/05/25 07:34:00;;;;;;;12.13;2.00;;;21.00;99.90;;;;;;5055020;28;20241;-87
2022/05/25 07:36:28;;;;;;;2.70;1.02;;;21.30;99.90;;;;;;5056147;28;20183;-95
2022/05/25 07:38:57;;;;;;;10.90;1.90;;;21.40;99.90;;;;;;5054827;28;20222;-85
2022/05/25 07:41:23;;;;;;;7.40;1.17;;;20.70;99.90;;;;;;5036729;28;20190;-83
2022/05/25 07:43:53;;;;;;;10.23;1.10;;;20.70;99.90;;;;;;5039475;28;20191;-84
2022/05/25 07:46:20;;;;;;;5.00;1.52;;;20.50;99.90;;;;;;5076105;28;20178;-83
2022/05/25 07:48:45;;;;;;;1.35;1.23;;;19.80;99.90;;;;;;5045907;28;20210;-81
2022/05/25 07:51:11;;;;;;;5.00;1.20;;;19.60;99.90;;;;;;5036006;28;20203;-82
2022/05/25 07:56:21;;;;;;;4.53;1.98;;;19.10;99.90;;;;;;5056471;28;20189;-82
2022/05/25 07:58:47;;;;;;;14.30;1.55;;;19.10;99.90;;;;;;5036845;28;20294;-82
2022/05/25 08:01:16;;;;;;;3.92;1.30;;;18.20;99.90;;;;;;5036637;28;20294;-82
2022/05/25 08:06:29;;;;;;;5.82;1.92;;;17.70;99.90;;;;;;5054670;28;20179;-82
2022/05/25 08:08:56;;;;;;;14.63;1.80;;;17.70;99.90;;;;;;5036509;28;20199;-84
2022/05/25 08:11:22;;;;;;;5.43;1.08;;;18.00;99.90;;;;;;5037008;28;20258;-84
2022/05/25 08:13:52;;;;;;;6.50;1.65;;;17.90;99.90;;;;;;5038701;28;20168;-84
2022/05/25 08:16:18;;;;;;;3.78;1.50;;;18.00;99.90;;;;;;5037158;28;20233;-89
2022/05/25 08:18:43;;;;;;;8.88;1.52;;;17.90;99.90;;;;;;5036501;28;20601;-86
2022/05/25 08:21:10;;;;;;;6.20;1.67;;;17.90;99.90;;;;;;5037138;28;20265;-85
2022/05/25 08:23:38;;;;;;;5.05;1.25;;;18.10;99.90;;;;;;5038415;28;20166;-89
2022/05/25 08:26:04;;;;;;;2.92;1.10;;;18.20;99.90;;;;;;5058868;28;20174;-89
2022/05/25 08:28:30;;;;;;;2.45;1.40;;;18.30;99.90;;;;;;5021524;28;20217;-88
2022/05/25 08:30:55;;;;;;;6.20;1.42;;;18.20;99.90;;;;;;5018360;28;20208;-88
2022/05/25 08:33:22;;;;;;;4.68;1.10;;;18.30;99.90;;;;;;5036281;28;20160;-86
2022/05/25 08:35:49;;;;;;;2.67;1.38;;;17.90;99.90;;;;;;5039796;28;20156;-88
2022/05/25 08:38:15;;;;;;;5.10;1.80;;;17.90;99.90;;;;;;5039060;28;20214;-87
2022/05/25 08:40:45;;;;;;;9.43;1.50;;;17.90;99.90;;;;;;5048980;28;20166;-87
2022/05/25 08:43:19;;;;;;;7.18;1.25;;;18.10;99.90;;;;;;5082618;28;20159;-86
2022/05/25 08:45:49;;;;;;;2.35;1.10;;;18.00;99.90;;;;;;5059733;28;20171;-87
2022/05/25 08:48:16;;;;;;;3.15;1.45;;;18.30;99.90;;;;;;5073939;28;20213;-81
2022/05/25 08:50:46;;;;;;;2.10;0.95;;;18.60;99.90;;;;;;5053504;28;20203;-83
2022/05/25 08:53:13;;;;;;;3.83;1.35;;;18.90;99.90;;;;;;5073050;28;20167;-84
2022/05/25 08:56:13;;;;;;;7.82;1.13;;;19.30;99.90;;;;;;5054651;28;20190;-85
2022/05/25 08:58:41;;;;;;;9.18;0.90;;;19.60;99.90;;;;;;5056777;28;20199;-85
2022/05/25 09:01:08;;;;;;;2.88;0.88;;;19.90;99.90;;;;;;5070924;28;20175;-85
2022/05/25 09:03:52;;;;;;;5.97;0.82;;;19.90;99.90;;;;;;5053832;28;20182;-85
2022/05/25 09:06:32;;;;;;;1.67;0.68;;;19.90;99.90;;;;;;5070731;28;20159;-84
2022/05/25 09:09:12;;;;;;;2.60;0.70;;;19.80;99.90;;;;;;5055866;28;20182;-85
2022/05/25 09:11:45;;;;;;;1.73;0.85;;;19.50;99.90;;;;;;5054526;28;20182;-85
2022/05/25 09:14:34;;;;;;;6.22;0.90;;;19.70;99.90;;;;;;5060195;28;20182;-83
2022/05/25 09:17:06;;;;;;;11.40;1.10;;;20.20;99.90;;;;;;5034968;28;20195;-86
2022/05/25 09:19:36;;;;;;;7.20;0.90;;;20.30;99.90;;;;;;5032590;28;20179;-86
2022/05/25 09:22:08;;;;;;;8.60;1.00;;;20.50;99.90;;;;;;5029486;28;20164;-87
2022/05/25 09:24:35;;;;;;;3.80;0.60;;;20.40;99.90;;;;;;5045897;28;20188;-85
2022/05/25 09:27:04;;;;;;;1.17;0.70;;;20.00;99.90;;;;;;5033620;28;20222;-86
2022/05/25 09:29:30;;;;;;;2.17;0.52;;;19.90;99.90;;;;;;5032373;28;20222;-85
2022/05/25 09:32:01;;;;;;;1.60;0.80;;;20.00;99.90;;;;;;5032578;28;20168;-87
2022/05/25 09:34:53;;;;;;;2.67;0.70;;;20.30;99.90;;;;;;5016455;28;20528;-87
2022/05/25 09:37:40;;;;;;;2.53;0.73;;;20.50;99.90;;;;;;5033223;28;20635;-84
2022/05/25 09:40:18;;;;;;;2.15;0.68;;;21.20;99.90;;;;;;5034094;28;20176;-84
2022/05/25 09:42:53;;;;;;;6.20;0.60;;;20.90;99.90;;;;;;5031243;28;20628;-83
2022/05/25 09:45:19;;;;;;;0.65;0.47;;;20.60;99.90;;;;;;5033841;28;20221;-86
2022/05/25 09:47:48;;;;;;;1.30;0.68;;;20.40;99.90;;;;;;5015943;28;20695;-86
2022/05/25 09:50:27;;;;;;;0.95;0.40;;;20.20;99.90;;;;;;5015814;28;20211;-86
2022/05/25 09:52:54;;;;;;;1.33;0.60;;;20.20;99.90;;;;;;5016013;28;20175;-86
2022/05/25 09:55:33;;;;;;;4.22;0.60;;;20.40;99.90;;;;;;5015857;28;20771;-86
2022/05/25 09:58:02;;;;;;;5.30;0.70;;;20.50;99.90;;;;;;5015399;28;20188;-86
2022/05/25 10:00:52;;;;;;;7.25;0.90;;;20.80;99.90;;;;;;5015944;28;20178;-86
2022/05/25 10:03:41;;;;;;;0.65;0.50;;;21.00;99.90;;;;;;5015869;28;20552;-87
2022/05/25 10:06:19;;;;;;;1.63;0.82;;;21.00;99.90;;;;;;5020321;28;20318;-86
2022/05/25 10:08:49;;;;;;;1.00;0.60;;;21.00;99.90;;;;;;5023500;28;20276;-87
2022/05/25 10:11:28;;;;;;;4.80;0.50;;;21.20;99.90;;;;;;5038565;28;20215;-86
2022/05/25 10:13:56;;;;;;;3.60;0.80;;;21.50;99.90;;;;;;5020328;28;20172;-87
2022/05/25 10:16:26;;;;;;;1.92;0.60;;;21.40;99.90;;;;;;5043972;28;20189;-86
2022/05/25 10:18:53;;;;;;;2.80;0.68;;;21.10;99.90;;;;;;5054889;28;20226;-84
2022/05/25 10:21:29;;;;;;;5.70;0.60;;;21.00;99.90;;;;;;5036446;28;20164;-84
2022/05/25 10:23:59;;;;;;;3.13;0.70;;;21.00;99.90;;;;;;5036793;28;20257;-81
2022/05/25 10:26:38;;;;;;;1.55;0.60;;;21.30;99.90;;;;;;5019293;28;20175;-84
2022/05/25 10:29:08;;;;;;;2.28;0.77;;;21.40;99.90;;;;;;5035354;28;20175;-85
2022/05/25 10:37:22;;;;;;;3.00;0.70;;;21.50;99.90;;;;;;5034952;28;20207;-83
2022/05/25 10:39:53;;;;;;;1.60;0.40;;;21.80;99.90;;;;;;5017469;28;20171;-80
2022/05/25 10:42:25;;;;;;;0.52;0.45;;;21.50;99.90;;;;;;5036247;28;20175;-81
2022/05/25 10:45:20;;;;;;;3.33;0.60;;;21.00;99.90;;;;;;5017205;28;20225;-82
2022/05/25 10:47:57;;;;;;;1.85;0.60;;;20.80;99.90;;;;;;5035617;28;20193;-82
2022/05/25 10:50:23;;;;;;;1.48;0.55;;;21.00;99.90;;;;;;5017136;28;20567;-82
2022/05/25 10:53:03;;;;;;;0.73;0.38;;;21.20;99.90;;;;;;5017664;28;20183;-82
2022/05/25 10:55:41;;;;;;;1.08;0.70;;;21.00;99.90;;;;;;5017127;28;20183;-82
2022/05/25 10:58:18;;;;;;;2.97;0.60;;;21.00;99.90;;;;;;5035006;28;20230;-85
2022/05/25 11:01:12;;;;;;;7.93;0.60;;;21.30;99.90;;;;;;5034962;28;20179;-79
2022/05/25 11:03:59;;;;;;;1.17;0.70;;;21.50;99.90;;;;;;5016984;28;20191;-80
2022/05/25 11:06:31;;;;;;;2.50;0.73;;;21.30;99.90;;;;;;5017199;28;20168;-81
2022/05/25 11:09:05;;;;;;;2.22;1.08;;;21.40;99.90;;;;;;5034679;28;20962;-82
2022/05/25 11:11:42;;;;;;;1.45;0.77;;;21.40;99.90;;;;;;5034354;28;20305;-80
2022/05/25 11:14:19;;;;;;;6.30;0.70;;;21.40;99.90;;;;;;5017182;28;20275;-80
2022/05/25 11:17:30;;;;;;;2.58;0.60;;;21.40;99.90;;;;;;5033607;28;20183;-82
2022/05/25 11:20:10;;;;;;;1.05;0.40;;;21.30;99.90;;;;;;5010768;28;20674;-84
2022/05/25 11:23:02;;;;;;;1.75;0.45;;;21.10;99.90;;;;;;5026530;28;20172;-81
2022/05/25 11:26:18;;;;;;;7.57;0.50;;;20.60;99.90;;;;;;5028888;28;20218;-82
2022/05/25 11:28:55;;;;;;;0.47;0.47;;;20.30;99.90;;;;;;5008350;28;20676;-82
2022/05/25 11:31:46;;;;;;;7.00;0.50;;;20.30;99.90;;;;;;5036892;28;20183;-81
2022/05/25 11:34:24;;;;;;;1.55;0.50;;;20.30;99.90;;;;;;5018033;28;20254;-81
2022/05/25 11:37:03;;;;;;;16.23;1.15;;;20.10;99.90;;;;;;5034568;28;20175;-82
2022/05/25 11:39:48;;;;;;;0.70;0.50;;;20.00;99.90;;;;;;5034245;28;20525;-81
2022/05/25 11:42:41;;;;;;;0.70;0.50;;;20.40;99.90;;;;;;5017651;28;20175;-78
2022/05/25 11:45:10;;;;;;;3.10;1.73;;;20.60;99.90;;;;;;5028360;28;20168;-81
2022/05/25 11:47:54;;;;;;;5.45;0.57;;;20.50;99.90;;;;;;5047320;28;20257;-81
2022/05/25 11:51:02;;;;;;;0.55;0.45;;;20.10;99.90;;;;;;5034224;28;20212;-80
2022/05/25 11:53:41;;;;;;;4.22;0.57;;;20.10;99.90;;;;;;5050840;28;20694;-80
2022/05/25 11:56:07;;;;;;;1.80;0.55;;;20.40;99.90;;;;;;5051527;28;20160;-79
2022/05/25 11:59:09;;;;;;;1.85;0.60;;;20.40;99.90;;;;;;5050576;28;20325;-81
2022/05/25 12:01:48;;;;;;;0.90;0.45;;;20.40;99.90;;;;;;5034650;28;20195;-82
2022/05/25 12:04:35;;;;;;;0.93;0.40;;;20.60;99.90;;;;;;5034208;28;20229;-80
2022/05/25 12:07:14;;;;;;;2.55;0.60;;;20.40;99.90;;;;;;5034880;28;20238;-80
2022/05/25 12:10:11;;;;;;;0.40;0.40;;;20.60;99.90;;;;;;5016600;28;20203;-81
2022/05/25 12:12:44;;;;;;;2.15;0.60;;;20.60;99.90;;;;;;5035681;28;20171;-79
2022/05/25 12:15:30;;;;;;;0.60;0.50;;;20.90;99.90;;;;;;5017662;28;20682;-80
2022/05/25 12:18:08;;;;;;;3.30;0.47;;;21.10;99.90;;;;;;5016805;28;20204;-80
2022/05/25 12:21:00;;;;;;;3.95;0.50;;;21.30;99.90;;;;;;5015864;28;20175;-79
2022/05/25 12:23:34;;;;;;;0.50;0.50;;;21.50;99.90;;;;;;5033718;28;20216;-79
2022/05/25 12:26:27;;;;;;;1.35;0.55;;;21.80;99.90;;;;;;5033963;28;20167;-82
2022/05/25 12:29:11;;;;;;;1.33;0.57;;;21.80;99.90;;;;;;5031006;28;20236;-79
2022/05/25 12:31:37;;;;;;;2.10;0.60;;;21.90;99.90;;;;;;5033709;28;20195;-78
2022/05/25 12:34:04;;;;;;;1.35;0.60;;;21.80;99.90;;;;;;5033170;28;20168;-78
2022/05/25 12:36:31;;;;;;;5.82;0.80;;;21.40;99.90;;;;;;5015487;28;20163;-81
2022/05/25 12:38:57;;;;;;;2.33;0.55;;;21.10;99.90;;;;;;5034339;28;20673;-80
2022/05/25 12:41:36;;;;;;;2.22;0.70;;;20.70;99.90;;;;;;5045883;28;20191;-79
2022/05/25 12:48:30;;;;;;;6.18;1.08;;;20.40;99.90;;;;;;5047689;28;20175;-78
2022/05/25 12:49:43;;;;;;;2.45;1.30;;;20.50;99.90;;;;;;5032707;28;20333;-80
2022/05/25 12:52:27;;;;;;;1.27;0.70;;;20.70;99.90;;;;;;5015261;28;20574;-80
2022/05/25 12:55:00;;;;;;;3.03;0.90;;;20.80;99.90;;;;;;5032784;28;20540;-80
2022/05/25 12:57:37;;;;;;;5.00;0.77;;;20.90;99.90;;;;;;5032702;28;20212;-81
2022/05/25 13:00:23;;;;;;;5.20;0.90;;;20.70;99.90;;;;;;5032857;28;20214;-80
2022/05/25 13:02:50;;;;;;;7.78;0.60;;;20.90;99.90;;;;;;5032786;28;20229;-80
2022/05/25 13:05:53;;;;;;;15.57;0.98;;;21.40;99.90;;;;;;5033188;28;20525;-80
2022/05/25 13:08:51;;;;;;;6.38;1.05;;;21.90;99.90;;;;;;4971673;28;20190;-81
2022/05/25 13:11:41;;;;;;;2.97;0.82;;;21.90;99.90;;;;;;4963153;28;20223;-80
2022/05/25 13:14:25;;;;;;;12.32;0.75;;;21.80;99.90;;;;;;5032546;28;20167;-81
2022/05/25 13:17:00;;;;;;;4.65;0.52;;;21.40;99.90;;;;;;5032183;28;20195;-78
2022/05/25 13:19:43;;;;;;;2.78;0.77;;;21.40;99.90;;;;;;5030459;28;20242;-77
2022/05/25 13:22:18;;;;;;;3.03;0.50;;;21.50;99.90;;;;;;5035006;22;20220;-78
2022/05/25 13:25:03;;;;;;;1.58;1.08;;;21.70;99.90;;;;;;5012509;28;20564;-78
2022/05/25 13:28:10;;;;;;;4.15;0.70;;;22.00;99.90;;;;;;5011686;28;20267;-78
2022/05/25 13:30:38;;;;;;;0.75;0.57;;;22.00;99.90;;;;;;5012210;28;20204;-78
2022/05/25 13:33:19;;;;;;;4.22;0.60;;;21.90;99.90;;;;;;4994745;28;20169;-78
2022/05/25 13:35:52;;;;;;;2.33;0.70;;;21.80;99.90;;;;;;5012270;28;20207;-78